createdAt,value
2023-05-22T00:00:10.402Z,21.86
2023-05-22T00:02:44.069Z,21.96
2023-05-22T00:05:15.096Z,22.03
2023-05-22T00:07:43.760Z,21.91
2023-05-22T00:10:11.409Z,22.07
2023-05-22T00:12:39.696Z,21.94
2023-05-22T00:15:07.782Z,22.00
2023-05-22T00:17:35.492Z,22.07
2023-05-22T00:20:06.816Z,22.10
2023-05-22T00:22:38.129Z,22.24
2023-05-22T00:25:07.127Z,22.32
2023-05-22T00:27:34.453Z,22.17
2023-05-22T00:30:01.918Z,22.30
2023-05-22T00:32:30.016Z,22.27
2023-05-22T00:34:57.506Z,22.30
2023-05-22T00:37:25.605Z,22.40
2023-05-22T00:39:53.137Z,22.38
2023-05-22T00:42:21.064Z,22.33
2023-05-22T00:44:48.831Z,22.32
2023-05-22T00:47:16.405Z,22.34
2023-05-22T00:49:45.417Z,22.34
2023-05-22T00:52:13.060Z,22.42
2023-05-22T00:54:40.681Z,22.43
2023-05-22T00:57:08.102Z,22.49
2023-05-22T01:02:22.280Z,22.31
2023-05-22T01:04:49.957Z,22.15
2023-05-22T01:07:17.968Z,22.19
2023-05-22T01:09:45.459Z,22.17
2023-05-22T01:12:49.034Z,22.09
2023-05-22T01:15:42.597Z,22.05
2023-05-22T01:18:19.882Z,21.99
2023-05-22T01:21:03.151Z,21.96
2023-05-22T01:23:49.056Z,22.03
2023-05-22T01:26:32.862Z,22.11
2023-05-22T01:29:42.324Z,22.00
2023-05-22T01:32:20.431Z,21.93
2023-05-22T01:34:54.830Z,21.96
2023-05-22T01:37:24.314Z,21.91
2023-05-22T01:39:54.660Z,21.97
2023-05-22T01:42:22.329Z,21.86
2023-05-22T01:44:49.776Z,21.91
2023-05-22T01:47:18.141Z,21.94
2023-05-22T01:49:47.380Z,21.81
2023-05-22T01:52:29.112Z,21.73
2023-05-22T01:55:07.067Z,21.77
2023-05-22T01:58:05.517Z,21.56
2023-05-22T02:00:35.835Z,21.47
2023-05-22T02:03:16.670Z,21.37
2023-05-22T02:05:47.726Z,21.31
2023-05-22T02:08:16.095Z,21.24
2023-05-22T02:10:45.875Z,21.15
2023-05-22T02:13:13.528Z,21.12
2023-05-22T02:15:43.544Z,21.08
2023-05-22T02:18:14.452Z,21.06
2023-05-22T02:20:46.280Z,21.06
2023-05-22T02:23:14.079Z,21.05
2023-05-22T02:25:41.520Z,21.06
2023-05-22T02:28:08.989Z,21.06
2023-05-22T02:30:36.607Z,21.02
2023-05-22T02:33:06.019Z,20.98
2023-05-22T02:35:39.667Z,20.97
2023-05-22T02:38:07.128Z,20.93
2023-05-22T02:40:34.714Z,20.84
2023-05-22T02:43:04.850Z,20.77
2023-05-22T02:45:32.886Z,20.74
2023-05-22T02:48:02.595Z,20.67
2023-05-22T02:50:30.079Z,20.66
2023-05-22T02:52:57.527Z,20.64
2023-05-22T02:55:25.102Z,20.65
2023-05-22T02:57:55.529Z,20.66
2023-05-22T03:00:23.021Z,20.63
2023-05-22T03:02:50.715Z,20.62
2023-05-22T03:05:20.790Z,20.65
2023-05-22T03:07:49.156Z,20.60
2023-05-22T03:10:19.663Z,20.61
2023-05-22T03:12:48.072Z,20.64
2023-05-22T03:15:15.727Z,20.57
2023-05-22T03:17:44.626Z,20.65
2023-05-22T03:20:16.440Z,20.58
2023-05-22T03:22:45.894Z,20.38
2023-05-22T03:25:13.449Z,20.21
2023-05-22T03:27:43.796Z,20.10
2023-05-22T03:30:11.772Z,20.04
2023-05-22T03:32:41.742Z,20.01
2023-05-22T03:35:12.446Z,19.98
2023-05-22T03:37:39.977Z,19.92
2023-05-22T03:40:07.852Z,19.84
2023-05-22T03:42:36.070Z,19.84
2023-05-22T03:45:04.013Z,19.81
2023-05-22T03:47:31.991Z,19.71
2023-05-22T03:49:59.353Z,19.54
2023-05-22T03:52:28.179Z,19.42
2023-05-22T03:54:55.656Z,19.44
2023-05-22T03:57:23.126Z,19.51
2023-05-22T03:59:50.539Z,19.56
2023-05-22T04:02:18.033Z,19.71
2023-05-22T04:04:48.208Z,19.81
2023-05-22T04:07:20.336Z,19.79
2023-05-22T04:09:47.657Z,19.91
2023-05-22T04:12:15.135Z,19.91
2023-05-22T04:14:43.333Z,19.96
2023-05-22T04:17:11.748Z,19.88
2023-05-22T04:19:39.133Z,19.69
2023-05-22T04:22:06.806Z,19.77
2023-05-22T04:24:34.218Z,19.82
2023-05-22T04:27:02.377Z,19.87
2023-05-22T04:29:29.928Z,19.92
2023-05-22T04:31:57.310Z,19.99
2023-05-22T04:34:26.056Z,20.04
2023-05-22T04:36:53.403Z,20.06
2023-05-22T04:39:20.974Z,20.12
2023-05-22T04:41:49.146Z,20.20
2023-05-22T04:44:16.995Z,20.24
2023-05-22T04:46:45.121Z,20.17
2023-05-22T04:49:15.517Z,20.14
2023-05-22T04:51:42.954Z,20.16
2023-05-22T04:54:10.638Z,20.13
2023-05-22T04:56:41.233Z,20.20
2023-05-22T04:59:09.491Z,20.35
2023-05-22T05:01:38.732Z,20.57
2023-05-22T05:04:06.471Z,20.71
2023-05-22T05:06:34.766Z,20.77
2023-05-22T05:09:06.208Z,20.83
2023-05-22T05:11:33.729Z,20.90
2023-05-22T05:14:01.216Z,20.98
2023-05-22T05:16:29.832Z,21.07
2023-05-22T05:18:57.589Z,21.14
2023-05-22T05:21:27.929Z,21.23
2023-05-22T05:23:58.371Z,21.35
2023-05-22T05:26:27.227Z,21.40
2023-05-22T05:28:56.721Z,21.51
2023-05-22T05:31:26.119Z,21.58
2023-05-22T05:34:29.046Z,21.59
2023-05-22T05:37:05.472Z,21.66
2023-05-22T05:39:33.691Z,21.60
2023-05-22T05:42:03.537Z,21.70
2023-05-22T05:44:30.977Z,21.83
2023-05-22T05:46:58.796Z,22.01
2023-05-22T05:49:27.610Z,22.03
2023-05-22T05:51:55.396Z,22.04
2023-05-22T05:54:26.257Z,22.12
2023-05-22T05:56:55.458Z,22.11
2023-05-22T05:59:22.882Z,22.16
2023-05-22T06:02:12.811Z,22.40
2023-05-22T06:04:42.135Z,22.52
2023-05-22T06:07:10.586Z,22.54
2023-05-22T06:09:43.369Z,22.53
2023-05-22T06:12:15.218Z,22.57
2023-05-22T06:14:45.256Z,22.57
2023-05-22T06:17:14.572Z,22.52
2023-05-22T06:19:43.499Z,22.61
2023-05-22T06:22:11.258Z,22.72
2023-05-22T06:24:41.575Z,22.71
2023-05-22T06:27:14.734Z,22.87
2023-05-22T06:29:42.147Z,22.90
2023-05-22T06:32:09.850Z,22.91
2023-05-22T06:34:40.361Z,22.98
2023-05-22T06:37:12.013Z,23.10
2023-05-22T06:39:43.144Z,23.36
2023-05-22T06:42:28.864Z,23.65
2023-05-22T06:45:22.094Z,23.70
2023-05-22T06:48:12.713Z,24.12
2023-05-22T06:50:53.061Z,24.44
2023-05-22T06:53:20.650Z,24.58
2023-05-22T06:55:48.373Z,24.51
2023-05-22T06:58:23.400Z,24.52
2023-05-22T07:00:51.883Z,24.46
2023-05-22T07:03:24.213Z,24.59
2023-05-22T07:06:15.532Z,24.64
2023-05-22T07:08:43.596Z,25.06
2023-05-22T07:11:11.088Z,25.24
2023-05-22T07:13:38.554Z,25.38
2023-05-22T07:16:06.504Z,25.43
2023-05-22T07:18:35.450Z,25.61
2023-05-22T07:21:03.022Z,25.66
2023-05-22T07:23:30.891Z,25.68
2023-05-22T07:25:58.891Z,25.85
2023-05-22T07:28:32.428Z,25.90
2023-05-22T07:31:05.635Z,25.95
2023-05-22T07:33:35.977Z,26.13
2023-05-22T07:36:03.652Z,26.46
2023-05-22T07:38:31.317Z,26.46
2023-05-22T07:41:04.739Z,26.47
2023-05-22T07:43:33.835Z,26.62
2023-05-22T07:46:01.358Z,26.27
2023-05-22T07:48:35.797Z,26.41
2023-05-22T07:51:03.856Z,26.50
2023-05-22T07:53:31.885Z,26.55
2023-05-22T07:56:02.168Z,26.44
2023-05-22T07:58:34.686Z,26.48
2023-05-22T08:01:02.043Z,26.59
2023-05-22T08:03:29.899Z,26.82
2023-05-22T08:05:57.472Z,26.84
2023-05-22T08:08:25.208Z,26.87
2023-05-22T08:11:03.975Z,26.83
2023-05-22T08:13:34.245Z,26.90
2023-05-22T08:16:01.830Z,26.98
2023-05-22T08:18:30.044Z,26.90
2023-05-22T08:20:57.986Z,27.17
2023-05-22T08:23:25.343Z,27.22
2023-05-22T08:25:52.847Z,26.84
2023-05-22T08:28:20.252Z,27.08
2023-05-22T08:30:47.731Z,27.07
2023-05-22T08:33:15.108Z,26.93
2023-05-22T08:35:42.518Z,26.66
2023-05-22T08:38:09.941Z,26.81
2023-05-22T08:40:39.742Z,26.99
2023-05-22T08:43:10.379Z,26.98
2023-05-22T08:45:42.597Z,27.17
2023-05-22T08:48:13.306Z,27.02
2023-05-22T08:50:43.125Z,27.36
2023-05-22T08:53:13.518Z,27.14
2023-05-22T08:55:41.362Z,27.13
2023-05-22T08:58:10.740Z,27.35
2023-05-22T09:00:38.256Z,27.49
2023-05-22T09:03:07.145Z,27.81
2023-05-22T09:05:36.405Z,27.74
2023-05-22T09:08:16.007Z,27.77
2023-05-22T09:10:49.712Z,27.92
2023-05-22T09:13:30.124Z,28.14
2023-05-22T09:16:11.748Z,27.80
2023-05-22T09:18:40.479Z,27.97
2023-05-22T09:21:21.456Z,27.96
2023-05-22T09:23:59.991Z,27.97
2023-05-22T09:26:30.657Z,28.06
2023-05-22T09:29:01.276Z,28.22
2023-05-22T09:31:29.577Z,27.94
2023-05-22T09:33:57.826Z,28.07
2023-05-22T09:36:36.097Z,28.07
2023-05-22T09:39:04.706Z,28.32
2023-05-22T09:41:36.688Z,28.26
2023-05-22T09:44:12.832Z,27.86
2023-05-22T09:46:41.844Z,27.62
2023-05-22T09:49:09.598Z,27.82
2023-05-22T09:51:41.514Z,27.78
2023-05-22T09:54:09.633Z,27.76
2023-05-22T09:56:39.697Z,27.98
2023-05-22T09:59:12.961Z,28.26
2023-05-22T10:01:43.116Z,28.48
2023-05-22T10:04:16.443Z,28.56
2023-05-22T10:06:50.853Z,28.21
2023-05-22T10:09:21.693Z,28.29
2023-05-22T10:11:52.636Z,28.03
2023-05-22T10:14:20.142Z,27.82
2023-05-22T10:16:47.836Z,27.89
2023-05-22T10:19:15.518Z,28.52
2023-05-22T10:21:43.183Z,28.59
2023-05-22T10:24:11.929Z,28.66
2023-05-22T10:26:39.567Z,28.64
2023-05-22T10:29:22.625Z,28.71
2023-05-22T10:32:08.108Z,28.53
2023-05-22T10:35:14.012Z,28.13
2023-05-22T10:37:44.583Z,28.59
2023-05-22T10:40:16.008Z,28.69
2023-05-22T10:42:44.187Z,28.52
2023-05-22T10:45:12.024Z,28.32
2023-05-22T10:47:40.133Z,28.62
2023-05-22T10:50:12.019Z,28.88
2023-05-22T10:52:40.331Z,28.97
2023-05-22T10:55:09.675Z,28.51
2023-05-22T10:57:39.534Z,28.75
2023-05-22T11:00:12.768Z,28.49
2023-05-22T11:02:45.379Z,28.97
2023-05-22T11:05:18.470Z,29.00
2023-05-22T11:07:45.982Z,29.30
2023-05-22T11:10:13.480Z,28.71
2023-05-22T11:12:41.688Z,29.03
2023-05-22T11:15:10.902Z,29.35
2023-05-22T11:17:45.227Z,29.45
2023-05-22T11:20:16.079Z,29.39
2023-05-22T11:22:51.059Z,29.32
2023-05-22T11:25:20.107Z,29.51
2023-05-22T11:27:48.398Z,28.96
2023-05-22T11:30:16.576Z,29.19
2023-05-22T11:32:45.954Z,29.06
2023-05-22T11:35:18.524Z,28.90
2023-05-22T11:37:47.150Z,28.83
2023-05-22T11:40:24.651Z,28.90
2023-05-22T11:42:56.805Z,28.95
2023-05-22T11:45:24.239Z,28.92
2023-05-22T11:47:51.827Z,29.08
2023-05-22T11:50:33.454Z,29.09
2023-05-22T11:53:10.261Z,29.22
2023-05-22T11:55:37.909Z,28.74
2023-05-22T11:58:05.372Z,29.21
2023-05-22T12:00:33.209Z,29.01
2023-05-22T12:03:00.864Z,28.98
2023-05-22T12:05:30.533Z,28.82
2023-05-22T12:07:58.001Z,29.21
2023-05-22T12:10:26.220Z,29.46
2023-05-22T12:12:55.159Z,29.41
2023-05-22T12:15:22.491Z,29.57
2023-05-22T12:17:50.056Z,29.48
2023-05-22T12:20:17.569Z,29.33
2023-05-22T12:22:45.627Z,29.32
2023-05-22T12:25:16.381Z,29.46
2023-05-22T12:27:45.529Z,29.35
2023-05-22T12:30:16.229Z,29.45
2023-05-22T12:32:48.995Z,29.26
2023-05-22T12:35:19.781Z,29.41
2023-05-22T12:37:51.728Z,29.30
2023-05-22T12:40:19.212Z,29.50
2023-05-22T12:42:50.553Z,29.64
2023-05-22T12:45:18.750Z,29.93
2023-05-22T12:47:46.439Z,29.91
2023-05-22T12:50:13.972Z,28.89
2023-05-22T12:52:41.429Z,28.69
2023-05-22T12:55:10.713Z,28.57
2023-05-22T12:57:38.113Z,28.49
2023-05-22T13:00:06.312Z,28.79
2023-05-22T13:02:34.177Z,28.44
2023-05-22T13:05:01.663Z,28.86
2023-05-22T13:07:29.675Z,29.06
2023-05-22T13:09:57.232Z,29.16
2023-05-22T13:12:24.717Z,28.79
2023-05-22T13:14:52.096Z,28.69
2023-05-22T13:17:19.525Z,28.86
2023-05-22T13:19:46.909Z,29.10
2023-05-22T13:22:14.860Z,28.98
2023-05-22T13:24:42.351Z,28.71
2023-05-22T13:27:09.740Z,28.42
2023-05-22T13:29:40.084Z,28.23
2023-05-22T13:32:13.110Z,28.39
2023-05-22T13:34:43.467Z,28.42
2023-05-22T13:37:14.123Z,28.80
2023-05-22T13:39:41.750Z,29.04
2023-05-22T13:42:11.796Z,29.04
2023-05-22T13:44:39.323Z,29.04
2023-05-22T13:47:06.848Z,28.96
2023-05-22T13:49:34.425Z,28.90
2023-05-22T13:52:01.885Z,28.80
2023-05-22T13:54:32.748Z,28.93
2023-05-22T13:57:02.308Z,28.69
2023-05-22T13:59:29.836Z,28.95
2023-05-22T14:01:57.346Z,29.20
2023-05-22T14:04:24.919Z,29.00
2023-05-22T14:06:53.008Z,28.57
2023-05-22T14:09:20.564Z,28.63
2023-05-22T14:11:47.921Z,28.56
2023-05-22T14:14:15.470Z,28.81
2023-05-22T14:16:42.898Z,28.93
2023-05-22T14:19:10.671Z,28.87
2023-05-22T14:21:38.003Z,28.60
2023-05-22T14:24:05.545Z,28.53
2023-05-22T14:26:32.923Z,28.15
2023-05-22T14:29:00.477Z,27.96
2023-05-22T14:31:31.188Z,27.92
2023-05-22T14:33:58.815Z,27.75
2023-05-22T14:36:26.189Z,27.75
2023-05-22T14:38:56.949Z,27.68
2023-05-22T14:41:25.016Z,27.66
2023-05-22T14:43:52.513Z,27.53
2023-05-22T14:46:19.851Z,27.28
2023-05-22T14:48:47.224Z,27.22
2023-05-22T14:51:14.580Z,27.26
2023-05-22T14:53:42.200Z,27.34
2023-05-22T14:56:09.684Z,27.52
2023-05-22T14:58:37.120Z,27.58
2023-05-22T15:01:04.893Z,27.67
2023-05-22T15:03:32.302Z,27.69
2023-05-22T15:05:59.717Z,27.75
2023-05-22T15:08:27.148Z,28.01
2023-05-22T15:10:54.562Z,28.10
2023-05-22T15:13:21.990Z,27.94
2023-05-22T15:15:49.407Z,27.93
2023-05-22T15:18:16.957Z,27.76
2023-05-22T15:20:44.406Z,27.73
2023-05-22T15:23:11.888Z,27.49
2023-05-22T15:25:39.452Z,27.29
2023-05-22T15:28:07.921Z,27.50
2023-05-22T15:30:36.543Z,27.64
2023-05-22T15:33:04.508Z,27.72
2023-05-22T15:35:32.449Z,27.67
2023-05-22T15:37:59.966Z,27.56
2023-05-22T15:40:27.583Z,27.47
2023-05-22T15:42:55.644Z,27.47
2023-05-22T15:45:23.141Z,27.61
2023-05-22T15:47:50.601Z,27.73
2023-05-22T15:50:18.046Z,27.99
2023-05-22T15:52:45.676Z,27.81
2023-05-22T15:55:14.109Z,27.76
2023-05-22T15:57:41.556Z,27.94
2023-05-22T16:00:09.425Z,27.88
2023-05-22T16:02:36.951Z,27.86
2023-05-22T16:05:04.916Z,27.75
2023-05-22T16:07:32.509Z,27.55
2023-05-22T16:09:59.959Z,27.51
2023-05-22T16:12:27.354Z,27.63
2023-05-22T16:15:00.384Z,27.58
2023-05-22T16:17:29.657Z,27.61
2023-05-22T16:19:57.208Z,27.67
2023-05-22T16:22:30.399Z,27.55
2023-05-22T16:25:04.295Z,27.45
2023-05-22T16:27:31.700Z,27.33
2023-05-22T16:30:02.500Z,27.31
2023-05-22T16:32:32.170Z,27.44
2023-05-22T16:34:59.652Z,27.54
2023-05-22T16:37:27.066Z,27.33
2023-05-22T16:39:54.607Z,27.25
2023-05-22T16:42:22.013Z,27.18
2023-05-22T16:44:49.415Z,27.15
2023-05-22T16:47:16.847Z,27.07
2023-05-22T16:49:44.497Z,26.99
2023-05-22T16:52:23.418Z,26.94
2023-05-22T16:54:50.799Z,26.91
2023-05-22T16:57:18.442Z,26.87
2023-05-22T16:59:46.092Z,26.83
2023-05-22T17:02:13.688Z,26.87
2023-05-22T17:04:41.223Z,26.72
2023-05-22T17:07:08.805Z,26.72
2023-05-22T17:09:36.343Z,26.69
2023-05-22T17:12:03.917Z,26.64
2023-05-22T17:14:33.460Z,26.63
2023-05-22T17:17:00.928Z,26.59
2023-05-22T17:19:28.440Z,26.53
2023-05-22T17:21:56.655Z,26.48
2023-05-22T17:24:25.019Z,26.36
2023-05-22T17:26:52.511Z,26.35
2023-05-22T17:29:19.936Z,26.28
2023-05-22T17:31:47.765Z,26.23
2023-05-22T17:34:15.273Z,26.20
2023-05-22T17:36:44.782Z,26.16
2023-05-22T17:39:12.631Z,26.08
2023-05-22T17:41:40.050Z,25.99
2023-05-22T17:44:07.528Z,25.93
2023-05-22T17:46:35.217Z,25.87
2023-05-22T17:49:02.856Z,25.82
2023-05-22T17:51:33.045Z,25.79
2023-05-22T17:54:00.540Z,25.76
2023-05-22T17:56:29.024Z,25.63
2023-05-22T17:58:56.699Z,25.58
2023-05-22T18:01:24.613Z,25.49
2023-05-22T18:03:52.198Z,25.46
2023-05-22T18:06:21.723Z,25.37
2023-05-22T18:08:52.065Z,25.33
2023-05-22T18:11:19.515Z,25.28
2023-05-22T18:13:47.164Z,25.15
2023-05-22T18:16:17.677Z,25.16
2023-05-22T18:18:46.077Z,25.20
2023-05-22T18:21:13.511Z,25.23
2023-05-22T18:23:40.944Z,25.22
2023-05-22T18:26:09.737Z,25.15
2023-05-22T18:28:37.157Z,25.06
2023-05-22T18:31:04.648Z,24.99
2023-05-22T18:33:33.489Z,24.94
2023-05-22T18:36:02.760Z,24.84
2023-05-22T18:38:30.757Z,24.77
2023-05-22T18:40:58.307Z,24.68
2023-05-22T18:43:28.262Z,24.66
2023-05-22T18:45:59.455Z,24.65
2023-05-22T18:48:28.215Z,24.63
2023-05-22T18:50:57.732Z,24.60
2023-05-22T18:53:25.970Z,24.54
2023-05-22T18:55:54.126Z,24.39
2023-05-22T18:58:22.097Z,24.22
2023-05-22T19:00:49.726Z,24.11
2023-05-22T19:03:17.174Z,24.02
2023-05-22T19:05:44.632Z,24.01
2023-05-22T19:08:12.115Z,23.87
2023-05-22T19:10:39.674Z,23.81
2023-05-22T19:13:09.439Z,23.89
2023-05-22T19:15:37.665Z,23.85
2023-05-22T19:18:05.431Z,23.84
2023-05-22T19:20:32.962Z,23.85
2023-05-22T19:23:00.550Z,23.79
2023-05-22T19:25:28.070Z,23.84
2023-05-22T19:27:55.471Z,23.87
2023-05-22T19:30:23.001Z,23.88
2023-05-22T19:32:50.473Z,23.88
2023-05-22T19:35:18.097Z,23.88
2023-05-22T19:37:46.103Z,23.87
2023-05-22T19:40:14.046Z,23.87
2023-05-22T19:42:42.214Z,23.83
2023-05-22T19:45:09.771Z,23.85
2023-05-22T19:47:37.230Z,23.99
2023-05-22T19:50:05.213Z,24.14
2023-05-22T19:52:32.635Z,24.08
2023-05-22T19:55:00.206Z,23.87
2023-05-22T19:57:27.588Z,23.57
2023-05-22T19:59:55.368Z,23.86
2023-05-22T20:02:22.889Z,23.85
2023-05-22T20:04:51.983Z,23.63
2023-05-22T20:07:19.388Z,23.47
2023-05-22T20:09:46.804Z,23.32
2023-05-22T20:12:14.764Z,23.23
2023-05-22T20:14:42.298Z,23.12
2023-05-22T20:17:14.940Z,23.03
2023-05-22T20:19:45.012Z,22.96
2023-05-22T20:22:12.475Z,23.00
2023-05-22T20:24:39.936Z,23.02
2023-05-22T20:27:07.379Z,22.99
2023-05-22T20:29:36.858Z,23.03
2023-05-22T20:32:04.569Z,23.02
2023-05-22T20:34:32.151Z,22.99
2023-05-22T20:37:00.144Z,22.99
2023-05-22T20:39:30.533Z,22.94
2023-05-22T20:41:57.939Z,22.93
2023-05-22T20:44:27.693Z,22.92
2023-05-22T20:46:57.759Z,22.84
2023-05-22T20:49:27.887Z,22.78
2023-05-22T20:51:55.496Z,22.66
2023-05-22T20:54:22.930Z,22.70
2023-05-22T20:56:50.555Z,22.87
2023-05-22T20:59:20.820Z,22.82
2023-05-22T21:01:48.279Z,22.82
2023-05-22T21:04:15.810Z,22.71
2023-05-22T21:06:43.251Z,22.54
2023-05-22T21:09:10.793Z,22.46
2023-05-22T21:11:38.282Z,22.40
2023-05-22T21:14:05.781Z,22.37
2023-05-22T21:16:39.141Z,22.36
2023-05-22T21:19:07.457Z,22.25
2023-05-22T21:21:41.391Z,22.13
2023-05-22T21:24:12.164Z,22.17
2023-05-22T21:26:42.347Z,22.14
2023-05-22T21:29:09.751Z,22.10
2023-05-22T21:31:37.187Z,22.05
2023-05-22T21:34:04.785Z,22.01
2023-05-22T21:36:32.177Z,21.98
2023-05-22T21:39:00.446Z,22.00
2023-05-22T21:41:29.213Z,21.89
2023-05-22T21:43:57.569Z,21.84
2023-05-22T21:46:25.077Z,21.78
2023-05-22T21:48:53.848Z,21.71
2023-05-22T21:51:21.400Z,21.71
2023-05-22T21:53:48.989Z,21.75
2023-05-22T21:56:17.331Z,21.80
2023-05-22T21:58:48.497Z,21.70
2023-05-22T22:01:15.985Z,21.70
2023-05-22T22:03:43.512Z,21.69
2023-05-22T22:06:11.235Z,21.75
2023-05-22T22:08:38.693Z,21.68
2023-05-22T22:11:06.940Z,21.60
2023-05-22T22:13:34.376Z,21.57
2023-05-22T22:16:01.909Z,21.54
2023-05-22T22:18:32.915Z,21.58
2023-05-22T22:21:02.103Z,21.54
2023-05-22T22:23:32.331Z,21.52
2023-05-22T22:25:59.775Z,21.51
2023-05-22T22:46:40.086Z,20.98
2023-05-22T22:49:08.717Z,20.95
2023-05-22T22:51:36.738Z,21.03
2023-05-22T22:54:04.092Z,21.09
2023-05-22T22:56:31.562Z,21.06
2023-05-22T22:58:58.887Z,20.95
2023-05-22T23:01:26.250Z,21.04
2023-05-22T23:03:53.550Z,20.87
2023-05-22T23:06:20.937Z,20.71
2023-05-22T23:08:48.274Z,20.59
2023-05-22T23:11:16.641Z,20.47
2023-05-22T23:13:43.990Z,20.56
2023-05-22T23:16:11.266Z,20.57
2023-05-22T23:18:38.616Z,20.48
2023-05-22T23:21:06.496Z,20.41
2023-05-22T23:23:33.839Z,20.44
2023-05-22T23:26:01.365Z,20.23
2023-05-22T23:28:28.755Z,20.17
2023-05-22T23:30:56.050Z,20.15
2023-05-22T23:33:23.375Z,20.24
2023-05-22T23:35:50.689Z,20.37
2023-05-22T23:38:17.983Z,20.50
2023-05-22T23:40:45.248Z,20.51
2023-05-22T23:43:12.528Z,20.48
2023-05-22T23:45:39.977Z,20.43
2023-05-22T23:48:07.624Z,20.28
2023-05-22T23:50:36.780Z,20.25
2023-05-22T23:53:04.122Z,20.17
2023-05-22T23:55:31.429Z,20.22
2023-05-22T23:57:58.736Z,20.26
